»·PEaware :: FDX3650 KPDX-KGEG

FDX3650 :: KPDX-KGEG

FLIGHT INFORMATION

Flight Status: Arrived
Operator:
Federal Express
More flights by this operator :: More flights under this callsign
Pilot: David C. (16084)
Aircraft: AIRBUS A300B4-600
(A306)
More flights by this aircraft type
Origin: KPDX Portland Intl
United States
Destination: KGEG Spokane Intl
United States
More flights between these airports :: More routes between these airports
Route: GEG
File this flight plan on PilotEdge
Remarks:
Altitude:
(Current/Filed)
29,000ft
Speed:
(Current/Filed)
472kts
Departed: 14-Jan-22 11:51 AM
Arrived: 14-Jan-22 12:37 PM
Distance/Time
Traveled:
242nm/0:46
Distance/Time
To Go:
Arrived

Flight Plot

Page will automatically refresh every two minutes.

Flight plan parsing failed; only flown route is shown


Map Options




Map Legend


Flown Route
Filed Route
Departure Airport
Arrival Airport
Navaid (VOR, NDB)
Fix

Horizontal Profiles

Position Reports

Time Latitude Longitude Heading Altitude Ground
Speed
14-Jan-22 11:16 45.579714 -122.610765 225 35ft 0kts
14-Jan-22 11:17 45.579714 -122.610765 225 35ft 0kts
14-Jan-22 11:18 45.579714 -122.610765 225 35ft 0kts
14-Jan-22 11:19 45.579714 -122.610765 225 35ft 0kts
14-Jan-22 11:20 45.579714 -122.610765 225 35ft 0kts
14-Jan-22 11:21 45.579714 -122.610765 225 35ft 0kts
14-Jan-22 11:22 45.579714 -122.610765 225 35ft 0kts
14-Jan-22 11:23 45.579714 -122.610765 225 35ft 0kts
14-Jan-22 11:24 45.579714 -122.610765 225 35ft 0kts
14-Jan-22 11:25 45.579714 -122.610765 225 35ft 0kts
14-Jan-22 11:26 45.579714 -122.610765 225 35ft 0kts
14-Jan-22 11:27 45.579714 -122.610765 225 35ft 0kts
14-Jan-22 11:28 45.579714 -122.610765 225 35ft 0kts
14-Jan-22 11:29 45.579714 -122.610765 225 35ft 0kts
14-Jan-22 11:30 45.579714 -122.610765 225 35ft 0kts
14-Jan-22 11:31 45.579714 -122.610765 225 35ft 0kts
14-Jan-22 11:32 45.579714 -122.610765 225 35ft 0kts
14-Jan-22 11:33 45.579714 -122.610765 225 35ft 0kts
14-Jan-22 11:34 45.579714 -122.610765 225 35ft 0kts
14-Jan-22 11:35 45.579714 -122.610765 225 35ft 0kts
14-Jan-22 11:36 45.579714 -122.610765 225 35ft 0kts
14-Jan-22 11:36 45.579714 -122.610765 225 35ft 0kts
14-Jan-22 11:38 45.579714 -122.610765 225 35ft 0kts
14-Jan-22 11:38 45.579715 -122.610765 225 35ft 0kts
14-Jan-22 11:40 45.580095 -122.610153 235 35ft 2kts
14-Jan-22 11:41 45.580240 -122.609793 244 35ft 0kts
14-Jan-22 11:42 45.580240 -122.609793 244 35ft 0kts
14-Jan-22 11:42 45.580240 -122.609793 244 35ft 0kts
14-Jan-22 11:43 45.580383 -122.610299 318 35ft 9kts
14-Jan-22 11:45 45.581685 -122.611921 317 35ft 4kts
14-Jan-22 11:46 45.585011 -122.610925 45 35ft 26kts
14-Jan-22 11:46 45.588923 -122.608678 297 35ft 24kts
14-Jan-22 11:47 45.591817 -122.618973 298 35ft 32kts
14-Jan-22 11:48 45.593990 -122.622193 27 35ft 0kts
14-Jan-22 11:50 45.594690 -122.621656 32 35ft 13kts
14-Jan-22 11:50 45.592229 -122.614095 118 35ft 100kts
14-Jan-22 11:51 45.574987 -122.551593 99 1093ft 213kts
14-Jan-22 11:52 45.564889 -122.459553 105 4159ft 247kts
14-Jan-22 11:53 45.547682 -122.361785 107 7537ft 265kts
14-Jan-22 11:54 45.579196 -122.266296 48 10401ft 304kts
14-Jan-22 11:55 45.644491 -122.165231 54 11773ft 385kts
14-Jan-22 11:56 45.692627 -122.024439 66 14692ft 406kts
14-Jan-22 11:57 45.740816 -121.874317 64 17358ft 426kts
14-Jan-22 11:58 45.816107 -121.738819 48 19761ft 446kts
14-Jan-22 11:59 45.898241 -121.601466 48 22109ft 463kts
14-Jan-22 12:00 45.982959 -121.458416 48 24308ft 479kts
14-Jan-22 12:01 46.069655 -121.311320 48 26341ft 497kts
14-Jan-22 12:02 46.157774 -121.161018 48 28376ft 504kts
14-Jan-22 12:03 46.246806 -121.008255 46 29607ft 492kts
14-Jan-22 12:04 46.332826 -120.859919 46 29616ft 481kts
14-Jan-22 12:05 46.418451 -120.711443 46 29608ft 482kts
14-Jan-22 12:06 46.504051 -120.562209 46 29609ft 482kts
14-Jan-22 12:07 46.589648 -120.411663 46 29588ft 483kts
14-Jan-22 12:08 46.672322 -120.268094 46 29581ft 483kts
14-Jan-22 12:09 46.758334 -120.118607 46 29594ft 483kts
14-Jan-22 12:10 46.844484 -119.968006 46 29613ft 483kts
14-Jan-22 12:11 46.930565 -119.816720 46 29609ft 488kts
14-Jan-22 12:12 47.017952 -119.662248 47 29593ft 498kts
14-Jan-22 12:13 47.103200 -119.510630 47 28992ft 482kts
14-Jan-22 12:14 47.188691 -119.357928 48 28020ft 494kts
14-Jan-22 12:15 47.241228 -119.182867 74 27033ft 486kts
14-Jan-22 12:16 47.280988 -118.993385 71 25444ft 477kts
14-Jan-22 12:17 47.320636 -118.808931 69 23149ft 470kts
14-Jan-22 12:18 47.358443 -118.630999 69 20832ft 437kts
14-Jan-22 12:19 47.393159 -118.466418 70 18536ft 407kts
14-Jan-22 12:20 47.424946 -118.314263 71 15946ft 390kts
14-Jan-22 12:21 47.456259 -118.163705 70 14863ft 384kts
14-Jan-22 12:22 47.486721 -118.014676 71 13531ft 366kts
14-Jan-22 12:23 47.515006 -117.875718 71 11900ft 337kts
14-Jan-22 12:24 47.539822 -117.753007 71 10918ft 289kts
14-Jan-22 12:25 47.562414 -117.642025 63 9935ft 279kts
14-Jan-22 12:26 47.606191 -117.563364 43 9115ft 224kts
14-Jan-22 12:27 47.648080 -117.498113 43 8210ft 219kts
14-Jan-22 12:28 47.689786 -117.433232 44 7236ft 216kts
14-Jan-22 12:29 47.723874 -117.364269 64 6205ft 196kts
14-Jan-22 12:30 47.741844 -117.293380 46 6012ft 190kts
14-Jan-22 12:31 47.779341 -117.304542 272 5991ft 190kts
14-Jan-22 12:32 47.740700 -117.353248 223 5837ft 205kts
14-Jan-22 12:33 47.700596 -117.413522 226 4355ft 188kts
14-Jan-22 12:34 47.665018 -117.467253 226 3362ft 178kts
14-Jan-22 12:35 47.632301 -117.516651 225 2468ft 162kts
14-Jan-22 12:36 47.618123 -117.539759 271 2396ft 20kts
14-Jan-22 12:37 47.621108 -117.537510 45 2396ft 30kts
14-Jan-22 12:38 47.626997 -117.529490 0 2396ft 14kts
14-Jan-22 12:39 47.627492 -117.529943 316 2396ft 0kts
14-Jan-22 12:40 47.627492 -117.529943 316 2396ft 0kts

Navigation Log

Ident Type
Flight plan parsing failed, navigation log unavailable